Terminal Aerodrome Forecast
Issued by NWS

Home | Current Version | Previous Version | Text Only | Print | Product List | Glossary On
Versions: 1 2 3 4 5 6 7 8 9 10 11 12 13 14 15 16 17 18 19
000
FTUS45 KGJT 272341
TAFDRO
TAF
KDRO 272341Z 2800/2824 31021G30KT P6SM BKN110
     FM280300 31006KT P6SM VCSH BKN090
     FM280500 33004KT P6SM SCT070
     FM280800 VRB03KT P6SM BKN070
     FM281100 29004KT P6SM VCSH SCT120
     FM281800 26010G19KT P6SM SCT090=

USA.gov is the U.S. government's official web portal to all federal, state and local government web resources and services.